sensor_id;sensor_type;location;lat;lon;timestamp;temperature;humidity
1546;DHT22;766;51.502;9.752;2024-01-27T00:00:13;4.10;99.90
1546;DHT22;766;51.502;9.752;2024-01-27T00:02:42;4.10;99.90
1546;DHT22;766;51.502;9.752;2024-01-27T00:05:10;4.10;99.90
1546;DHT22;766;51.502;9.752;2024-01-27T00:07:39;4.10;99.90
1546;DHT22;766;51.502;9.752;2024-01-27T00:10:08;4.00;99.90
1546;DHT22;766;51.502;9.752;2024-01-27T00:12:36;4.00;99.90
1546;DHT22;766;51.502;9.752;2024-01-27T00:15:07;4.00;99.90
1546;DHT22;766;51.502;9.752;2024-01-27T00:17:37;4.00;99.90
1546;DHT22;766;51.502;9.752;2024-01-27T00:20:07;4.00;99.90
1546;DHT22;766;51.502;9.752;2024-01-27T00:22:35;3.90;99.90
1546;DHT22;766;51.502;9.752;2024-01-27T00:25:04;3.90;99.90
1546;DHT22;766;51.502;9.752;2024-01-27T00:27:33;3.80;99.90
1546;DHT22;766;51.502;9.752;2024-01-27T00:30:01;3.80;99.90
1546;DHT22;766;51.502;9.752;2024-01-27T00:32:29;3.70;99.90
1546;DHT22;766;51.502;9.752;2024-01-27T00:34:59;3.70;99.90
1546;DHT22;766;51.502;9.752;2024-01-27T00:37:27;3.70;99.90
1546;DHT22;766;51.502;9.752;2024-01-27T00:39:55;3.80;99.90
1546;DHT22;766;51.502;9.752;2024-01-27T00:42:23;3.80;99.90
1546;DHT22;766;51.502;9.752;2024-01-27T00:44:52;3.80;99.90
1546;DHT22;766;51.502;9.752;2024-01-27T00:47:20;3.80;99.90
1546;DHT22;766;51.502;9.752;2024-01-27T00:49:48;3.80;99.90
1546;DHT22;766;51.502;9.752;2024-01-27T00:52:18;3.80;99.90
1546;DHT22;766;51.502;9.752;2024-01-27T00:54:46;3.80;99.90
1546;DHT22;766;51.502;9.752;2024-01-27T00:57:15;3.80;99.90
1546;DHT22;766;51.502;9.752;2024-01-27T00:59:43;3.80;99.90
1546;DHT22;766;51.502;9.752;2024-01-27T01:02:12;3.80;99.90
1546;DHT22;766;51.502;9.752;2024-01-27T01:04:41;3.70;99.90
1546;DHT22;766;51.502;9.752;2024-01-27T01:07:09;3.70;99.90
1546;DHT22;766;51.502;9.752;2024-01-27T01:09:39;3.70;99.90
1546;DHT22;766;51.502;9.752;2024-01-27T01:12:07;3.70;99.90
1546;DHT22;766;51.502;9.752;2024-01-27T01:14:36;3.70;99.90
1546;DHT22;766;51.502;9.752;2024-01-27T01:17:04;3.70;99.90
1546;DHT22;766;51.502;9.752;2024-01-27T01:19:33;3.70;99.90
1546;DHT22;766;51.502;9.752;2024-01-27T01:22:01;3.70;99.90
1546;DHT22;766;51.502;9.752;2024-01-27T01:24:29;3.70;99.90
1546;DHT22;766;51.502;9.752;2024-01-27T01:26:59;3.80;99.90
1546;DHT22;766;51.502;9.752;2024-01-27T01:29:28;3.80;99.90
1546;DHT22;766;51.502;9.752;2024-01-27T01:31:56;3.80;99.90
1546;DHT22;766;51.502;9.752;2024-01-27T01:34:24;3.80;99.90
1546;DHT22;766;51.502;9.752;2024-01-27T01:36:53;3.80;99.90
1546;DHT22;766;51.502;9.752;2024-01-27T01:39:21;3.80;99.90
1546;DHT22;766;51.502;9.752;2024-01-27T01:41:49;3.80;99.90
1546;DHT22;766;51.502;9.752;2024-01-27T01:44:19;3.80;99.90
1546;DHT22;766;51.502;9.752;2024-01-27T01:46:48;3.80;99.90
1546;DHT22;766;51.502;9.752;2024-01-27T01:49:16;3.80;99.90
1546;DHT22;766;51.502;9.752;2024-01-27T01:51:44;3.80;99.90
1546;DHT22;766;51.502;9.752;2024-01-27T01:54:12;3.80;99.90
1546;DHT22;766;51.502;9.752;2024-01-27T01:56:42;3.80;99.90
1546;DHT22;766;51.502;9.752;2024-01-27T01:59:10;3.80;99.90
1546;DHT22;766;51.502;9.752;2024-01-27T02:01:39;3.80;99.90
1546;DHT22;766;51.502;9.752;2024-01-27T02:04:12;3.80;99.90
1546;DHT22;766;51.502;9.752;2024-01-27T02:06:40;3.80;99.90
1546;DHT22;766;51.502;9.752;2024-01-27T02:09:08;3.80;99.90
1546;DHT22;766;51.502;9.752;2024-01-27T02:11:37;3.80;99.90
1546;DHT22;766;51.502;9.752;2024-01-27T02:14:07;3.70;99.90
1546;DHT22;766;51.502;9.752;2024-01-27T02:16:35;3.80;99.90
1546;DHT22;766;51.502;9.752;2024-01-27T02:19:05;3.80;99.90
1546;DHT22;766;51.502;9.752;2024-01-27T02:21:33;3.80;99.90
1546;DHT22;766;51.502;9.752;2024-01-27T02:24:02;3.80;99.90
1546;DHT22;766;51.502;9.752;2024-01-27T02:26:31;3.80;99.90
1546;DHT22;766;51.502;9.752;2024-01-27T02:28:59;3.80;99.90
1546;DHT22;766;51.502;9.752;2024-01-27T02:31:28;3.80;99.90
1546;DHT22;766;51.502;9.752;2024-01-27T02:33:56;3.80;99.90
1546;DHT22;766;51.502;9.752;2024-01-27T02:36:27;3.80;99.90
1546;DHT22;766;51.502;9.752;2024-01-27T02:38:56;3.80;99.90
1546;DHT22;766;51.502;9.752;2024-01-27T02:41:24;3.80;99.90
1546;DHT22;766;51.502;9.752;2024-01-27T02:43:53;3.80;99.90
1546;DHT22;766;51.502;9.752;2024-01-27T02:46:21;3.80;99.90
1546;DHT22;766;51.502;9.752;2024-01-27T02:48:49;3.80;99.90
1546;DHT22;766;51.502;9.752;2024-01-27T02:51:19;3.80;99.90
1546;DHT22;766;51.502;9.752;2024-01-27T02:53:48;3.80;99.90
1546;DHT22;766;51.502;9.752;2024-01-27T02:56:16;3.80;99.90
1546;DHT22;766;51.502;9.752;2024-01-27T02:58:44;3.90;99.90
1546;DHT22;766;51.502;9.752;2024-01-27T03:01:14;3.90;99.90
1546;DHT22;766;51.502;9.752;2024-01-27T03:03:42;3.90;99.90
1546;DHT22;766;51.502;9.752;2024-01-27T03:06:11;3.90;99.90
1546;DHT22;766;51.502;9.752;2024-01-27T03:08:39;3.90;99.90
1546;DHT22;766;51.502;9.752;2024-01-27T03:11:08;3.90;99.90
1546;DHT22;766;51.502;9.752;2024-01-27T03:13:36;3.90;99.90
1546;DHT22;766;51.502;9.752;2024-01-27T03:16:08;3.90;99.90
1546;DHT22;766;51.502;9.752;2024-01-27T03:18:38;3.90;99.90
1546;DHT22;766;51.502;9.752;2024-01-27T03:21:07;3.90;99.90
1546;DHT22;766;51.502;9.752;2024-01-27T03:23:35;3.80;99.90
1546;DHT22;766;51.502;9.752;2024-01-27T03:26:04;3.90;99.90
1546;DHT22;766;51.502;9.752;2024-01-27T03:28:32;3.90;99.90
1546;DHT22;766;51.502;9.752;2024-01-27T03:31:00;3.90;99.90
1546;DHT22;766;51.502;9.752;2024-01-27T03:33:28;3.80;99.90
1546;DHT22;766;51.502;9.752;2024-01-27T03:35:59;3.80;99.90
1546;DHT22;766;51.502;9.752;2024-01-27T03:38:27;3.80;99.90
1546;DHT22;766;51.502;9.752;2024-01-27T03:40:56;3.80;99.90
1546;DHT22;766;51.502;9.752;2024-01-27T03:43:26;3.80;99.90
1546;DHT22;766;51.502;9.752;2024-01-27T03:45:54;3.70;99.90
1546;DHT22;766;51.502;9.752;2024-01-27T03:48:23;3.70;99.90
1546;DHT22;766;51.502;9.752;2024-01-27T03:50:53;3.70;99.90
1546;DHT22;766;51.502;9.752;2024-01-27T03:53:22;3.60;99.90
1546;DHT22;766;51.502;9.752;2024-01-27T03:55:50;3.50;99.90
1546;DHT22;766;51.502;9.752;2024-01-27T03:58:18;3.40;99.90
1546;DHT22;766;51.502;9.752;2024-01-27T04:00:47;3.40;99.90
1546;DHT22;766;51.502;9.752;2024-01-27T04:03:15;3.30;99.90
1546;DHT22;766;51.502;9.752;2024-01-27T04:05:44;3.30;99.90
1546;DHT22;766;51.502;9.752;2024-01-27T04:08:13;3.30;99.90
1546;DHT22;766;51.502;9.752;2024-01-27T04:10:42;3.30;99.90
1546;DHT22;766;51.502;9.752;2024-01-27T04:13:10;3.30;99.90
1546;DHT22;766;51.502;9.752;2024-01-27T04:15:38;3.30;99.90
1546;DHT22;766;51.502;9.752;2024-01-27T04:18:07;3.30;99.90
1546;DHT22;766;51.502;9.752;2024-01-27T04:20:36;3.20;99.90
1546;DHT22;766;51.502;9.752;2024-01-27T04:23:05;3.10;99.90
1546;DHT22;766;51.502;9.752;2024-01-27T04:25:33;3.10;99.90
1546;DHT22;766;51.502;9.752;2024-01-27T04:28:03;3.10;99.90
1546;DHT22;766;51.502;9.752;2024-01-27T04:30:31;3.00;99.90
1546;DHT22;766;51.502;9.752;2024-01-27T04:32:59;3.00;99.90
1546;DHT22;766;51.502;9.752;2024-01-27T04:35:28;3.00;99.90
1546;DHT22;766;51.502;9.752;2024-01-27T04:37:56;3.00;99.90
1546;DHT22;766;51.502;9.752;2024-01-27T04:40:31;3.00;99.90
1546;DHT22;766;51.502;9.752;2024-01-27T04:42:59;3.00;99.90
1546;DHT22;766;51.502;9.752;2024-01-27T04:45:28;2.90;99.90
1546;DHT22;766;51.502;9.752;2024-01-27T04:47:57;2.90;99.90
1546;DHT22;766;51.502;9.752;2024-01-27T04:50:27;2.80;99.90
1546;DHT22;766;51.502;9.752;2024-01-27T04:52:55;2.80;99.90
1546;DHT22;766;51.502;9.752;2024-01-27T04:55:23;2.70;99.90
1546;DHT22;766;51.502;9.752;2024-01-27T04:57:52;2.70;99.90
1546;DHT22;766;51.502;9.752;2024-01-27T05:00:20;2.70;99.90
1546;DHT22;766;51.502;9.752;2024-01-27T05:02:50;2.60;99.90
1546;DHT22;766;51.502;9.752;2024-01-27T05:05:18;2.60;99.90
1546;DHT22;766;51.502;9.752;2024-01-27T05:07:46;2.60;99.90
1546;DHT22;766;51.502;9.752;2024-01-27T05:10:15;2.60;99.90
1546;DHT22;766;51.502;9.752;2024-01-27T05:12:44;2.60;99.90
1546;DHT22;766;51.502;9.752;2024-01-27T05:15:12;2.60;99.90
1546;DHT22;766;51.502;9.752;2024-01-27T05:17:40;2.50;99.90
1546;DHT22;766;51.502;9.752;2024-01-27T05:20:10;2.50;99.90
1546;DHT22;766;51.502;9.752;2024-01-27T05:22:38;2.50;99.90
1546;DHT22;766;51.502;9.752;2024-01-27T05:25:07;2.40;99.90
1546;DHT22;766;51.502;9.752;2024-01-27T05:27:37;2.40;99.90
1546;DHT22;766;51.502;9.752;2024-01-27T05:30:06;2.40;99.90
1546;DHT22;766;51.502;9.752;2024-01-27T05:32:37;2.40;99.90
1546;DHT22;766;51.502;9.752;2024-01-27T05:35:06;2.30;99.90
1546;DHT22;766;51.502;9.752;2024-01-27T05:37:36;2.40;99.90
1546;DHT22;766;51.502;9.752;2024-01-27T05:40:07;2.30;99.90
1546;DHT22;766;51.502;9.752;2024-01-27T05:42:36;2.30;99.90
1546;DHT22;766;51.502;9.752;2024-01-27T05:45:05;2.30;99.90
1546;DHT22;766;51.502;9.752;2024-01-27T05:47:33;2.20;99.90
1546;DHT22;766;51.502;9.752;2024-01-27T05:50:02;2.20;99.90
1546;DHT22;766;51.502;9.752;2024-01-27T05:52:31;2.20;99.90
1546;DHT22;766;51.502;9.752;2024-01-27T05:55:01;2.20;99.90
1546;DHT22;766;51.502;9.752;2024-01-27T05:57:29;2.10;99.90
1546;DHT22;766;51.502;9.752;2024-01-27T05:59:57;2.10;99.90
1546;DHT22;766;51.502;9.752;2024-01-27T06:02:26;2.10;99.90
1546;DHT22;766;51.502;9.752;2024-01-27T06:04:57;2.10;99.90
1546;DHT22;766;51.502;9.752;2024-01-27T06:07:25;2.10;99.90
1546;DHT22;766;51.502;9.752;2024-01-27T06:09:53;2.00;99.90
1546;DHT22;766;51.502;9.752;2024-01-27T06:12:23;2.00;99.90
1546;DHT22;766;51.502;9.752;2024-01-27T06:14:52;1.90;99.90
1546;DHT22;766;51.502;9.752;2024-01-27T06:17:20;1.90;99.90
1546;DHT22;766;51.502;9.752;2024-01-27T06:19:48;1.80;99.90
1546;DHT22;766;51.502;9.752;2024-01-27T06:22:16;1.80;99.90
1546;DHT22;766;51.502;9.752;2024-01-27T06:24:44;1.80;99.90
1546;DHT22;766;51.502;9.752;2024-01-27T06:27:13;1.80;99.90
1546;DHT22;766;51.502;9.752;2024-01-27T06:29:42;1.80;99.90
1546;DHT22;766;51.502;9.752;2024-01-27T06:32:10;1.80;99.90
1546;DHT22;766;51.502;9.752;2024-01-27T06:34:39;1.70;99.90
1546;DHT22;766;51.502;9.752;2024-01-27T06:37:07;1.70;99.90
1546;DHT22;766;51.502;9.752;2024-01-27T06:39:36;1.60;99.90
1546;DHT22;766;51.502;9.752;2024-01-27T06:42:06;1.60;99.90
1546;DHT22;766;51.502;9.752;2024-01-27T06:44:34;1.60;99.90
1546;DHT22;766;51.502;9.752;2024-01-27T06:47:04;1.50;99.90
1546;DHT22;766;51.502;9.752;2024-01-27T06:49:32;1.50;99.90
1546;DHT22;766;51.502;9.752;2024-01-27T06:52:00;1.60;99.90
1546;DHT22;766;51.502;9.752;2024-01-27T06:54:28;1.60;99.90
1546;DHT22;766;51.502;9.752;2024-01-27T06:56:59;1.60;99.90
1546;DHT22;766;51.502;9.752;2024-01-27T06:59:27;1.60;99.90
1546;DHT22;766;51.502;9.752;2024-01-27T07:01:55;1.70;99.90
1546;DHT22;766;51.502;9.752;2024-01-27T07:04:28;1.60;99.90
1546;DHT22;766;51.502;9.752;2024-01-27T07:06:56;1.60;99.90
1546;DHT22;766;51.502;9.752;2024-01-27T07:09:27;1.70;99.90
1546;DHT22;766;51.502;9.752;2024-01-27T07:11:56;1.70;99.90
1546;DHT22;766;51.502;9.752;2024-01-27T07:14:24;1.70;99.90
1546;DHT22;766;51.502;9.752;2024-01-27T07:16:52;1.60;99.90
1546;DHT22;766;51.502;9.752;2024-01-27T07:19:20;1.60;99.90
1546;DHT22;766;51.502;9.752;2024-01-27T07:21:50;1.70;99.90
1546;DHT22;766;51.502;9.752;2024-01-27T07:24:18;1.70;99.90
1546;DHT22;766;51.502;9.752;2024-01-27T07:26:50;1.70;99.90
1546;DHT22;766;51.502;9.752;2024-01-27T07:29:21;1.70;99.90
1546;DHT22;766;51.502;9.752;2024-01-27T07:31:50;1.70;99.90
1546;DHT22;766;51.502;9.752;2024-01-27T07:34:18;1.60;99.90
1546;DHT22;766;51.502;9.752;2024-01-27T07:36:51;1.60;99.90
1546;DHT22;766;51.502;9.752;2024-01-27T07:39:19;1.60;99.90
1546;DHT22;766;51.502;9.752;2024-01-27T07:41:50;1.70;99.90
1546;DHT22;766;51.502;9.752;2024-01-27T07:44:18;1.70;99.90
1546;DHT22;766;51.502;9.752;2024-01-27T07:46:46;1.80;99.90
1546;DHT22;766;51.502;9.752;2024-01-27T07:49:14;1.70;99.90
1546;DHT22;766;51.502;9.752;2024-01-27T07:51:43;1.80;99.90
1546;DHT22;766;51.502;9.752;2024-01-27T07:54:14;1.80;99.90
1546;DHT22;766;51.502;9.752;2024-01-27T07:56:43;1.70;99.90
1546;DHT22;766;51.502;9.752;2024-01-27T07:59:11;1.70;99.90
1546;DHT22;766;51.502;9.752;2024-01-27T08:01:42;1.80;99.90
1546;DHT22;766;51.502;9.752;2024-01-27T08:04:10;1.70;99.90
1546;DHT22;766;51.502;9.752;2024-01-27T08:06:46;1.70;99.90
1546;DHT22;766;51.502;9.752;2024-01-27T08:09:16;1.70;99.90
1546;DHT22;766;51.502;9.752;2024-01-27T08:11:45;1.70;99.90
1546;DHT22;766;51.502;9.752;2024-01-27T08:14:24;1.80;99.90
1546;DHT22;766;51.502;9.752;2024-01-27T08:16:52;1.80;99.90
1546;DHT22;766;51.502;9.752;2024-01-27T08:19:24;1.80;99.90
1546;DHT22;766;51.502;9.752;2024-01-27T08:21:53;1.90;99.90
1546;DHT22;766;51.502;9.752;2024-01-27T08:24:23;1.90;99.90
1546;DHT22;766;51.502;9.752;2024-01-27T08:26:51;2.00;99.90
1546;DHT22;766;51.502;9.752;2024-01-27T08:29:19;2.00;99.90
1546;DHT22;766;51.502;9.752;2024-01-27T08:31:47;2.00;99.90
1546;DHT22;766;51.502;9.752;2024-01-27T08:34:16;2.10;99.90
1546;DHT22;766;51.502;9.752;2024-01-27T08:36:44;2.10;99.90
1546;DHT22;766;51.502;9.752;2024-01-27T08:39:13;2.10;99.90
1546;DHT22;766;51.502;9.752;2024-01-27T08:41:42;2.10;99.90
1546;DHT22;766;51.502;9.752;2024-01-27T08:44:15;2.10;99.90
1546;DHT22;766;51.502;9.752;2024-01-27T08:46:43;2.10;99.90
1546;DHT22;766;51.502;9.752;2024-01-27T08:49:12;2.10;99.90
1546;DHT22;766;51.502;9.752;2024-01-27T08:51:40;2.20;99.90
1546;DHT22;766;51.502;9.752;2024-01-27T08:54:08;2.20;99.90
1546;DHT22;766;51.502;9.752;2024-01-27T08:56:39;2.20;99.90
1546;DHT22;766;51.502;9.752;2024-01-27T08:59:09;2.20;99.90
1546;DHT22;766;51.502;9.752;2024-01-27T09:01:37;2.20;99.90
1546;DHT22;766;51.502;9.752;2024-01-27T09:04:05;2.20;99.90
1546;DHT22;766;51.502;9.752;2024-01-27T09:06:34;2.20;99.90
1546;DHT22;766;51.502;9.752;2024-01-27T09:09:02;2.30;99.90
1546;DHT22;766;51.502;9.752;2024-01-27T09:11:30;2.30;99.90
1546;DHT22;766;51.502;9.752;2024-01-27T09:14:00;2.40;99.90
1546;DHT22;766;51.502;9.752;2024-01-27T09:16:30;2.40;99.90
1546;DHT22;766;51.502;9.752;2024-01-27T09:18:59;2.40;99.90
1546;DHT22;766;51.502;9.752;2024-01-27T09:21:28;2.50;99.90
1546;DHT22;766;51.502;9.752;2024-01-27T09:23:59;2.60;99.90
1546;DHT22;766;51.502;9.752;2024-01-27T09:26:29;2.60;99.90
1546;DHT22;766;51.502;9.752;2024-01-27T09:28:57;2.60;99.90
1546;DHT22;766;51.502;9.752;2024-01-27T09:31:26;2.70;99.90
1546;DHT22;766;51.502;9.752;2024-01-27T09:33:56;2.70;99.90
1546;DHT22;766;51.502;9.752;2024-01-27T09:36:25;2.80;99.90
1546;DHT22;766;51.502;9.752;2024-01-27T09:38:53;2.80;99.90
1546;DHT22;766;51.502;9.752;2024-01-27T09:41:21;2.90;99.90
1546;DHT22;766;51.502;9.752;2024-01-27T09:43:50;3.00;99.90
1546;DHT22;766;51.502;9.752;2024-01-27T09:46:21;3.10;99.90
1546;DHT22;766;51.502;9.752;2024-01-27T09:48:49;3.20;99.90
1546;DHT22;766;51.502;9.752;2024-01-27T09:51:19;3.20;99.90
1546;DHT22;766;51.502;9.752;2024-01-27T09:53:48;3.20;99.90
1546;DHT22;766;51.502;9.752;2024-01-27T09:56:17;3.30;99.90
1546;DHT22;766;51.502;9.752;2024-01-27T09:58:47;3.40;99.90
1546;DHT22;766;51.502;9.752;2024-01-27T10:01:17;3.50;99.90
1546;DHT22;766;51.502;9.752;2024-01-27T10:03:46;3.60;99.90
1546;DHT22;766;51.502;9.752;2024-01-27T10:06:15;3.70;99.90
1546;DHT22;766;51.502;9.752;2024-01-27T10:08:53;3.80;99.90
1546;DHT22;766;51.502;9.752;2024-01-27T10:11:22;3.80;99.90
1546;DHT22;766;51.502;9.752;2024-01-27T10:13:55;3.80;99.90
1546;DHT22;766;51.502;9.752;2024-01-27T10:16:26;4.00;99.90
1546;DHT22;766;51.502;9.752;2024-01-27T10:19:04;4.00;99.90
1546;DHT22;766;51.502;9.752;2024-01-27T10:21:33;4.00;99.90
1546;DHT22;766;51.502;9.752;2024-01-27T10:24:03;4.10;99.90
1546;DHT22;766;51.502;9.752;2024-01-27T10:26:33;4.10;99.90
1546;DHT22;766;51.502;9.752;2024-01-27T10:29:02;4.20;99.90
1546;DHT22;766;51.502;9.752;2024-01-27T10:31:31;4.20;99.90
1546;DHT22;766;51.502;9.752;2024-01-27T10:34:00;4.40;99.90
1546;DHT22;766;51.502;9.752;2024-01-27T10:36:40;4.40;99.90
1546;DHT22;766;51.502;9.752;2024-01-27T10:39:18;4.60;99.90
1546;DHT22;766;51.502;9.752;2024-01-27T10:41:48;4.70;99.90
1546;DHT22;766;51.502;9.752;2024-01-27T10:44:17;4.60;99.90
1546;DHT22;766;51.502;9.752;2024-01-27T10:46:48;4.60;99.90
1546;DHT22;766;51.502;9.752;2024-01-27T10:49:17;4.70;99.90
1546;DHT22;766;51.502;9.752;2024-01-27T10:51:53;4.80;99.90
1546;DHT22;766;51.502;9.752;2024-01-27T10:54:25;4.90;99.90
1546;DHT22;766;51.502;9.752;2024-01-27T10:56:55;5.10;99.90
1546;DHT22;766;51.502;9.752;2024-01-27T10:59:27;5.20;99.90
1546;DHT22;766;51.502;9.752;2024-01-27T11:01:56;5.30;99.90
1546;DHT22;766;51.502;9.752;2024-01-27T11:04:25;5.40;99.90
1546;DHT22;766;51.502;9.752;2024-01-27T11:06:55;5.40;99.90
1546;DHT22;766;51.502;9.752;2024-01-27T11:09:26;5.50;99.90
1546;DHT22;766;51.502;9.752;2024-01-27T11:11:55;5.60;99.90
1546;DHT22;766;51.502;9.752;2024-01-27T11:14:23;5.70;99.90
1546;DHT22;766;51.502;9.752;2024-01-27T11:16:55;5.80;99.90
1546;DHT22;766;51.502;9.752;2024-01-27T11:19:23;5.90;99.90
1546;DHT22;766;51.502;9.752;2024-01-27T11:22:00;5.90;99.90
1546;DHT22;766;51.502;9.752;2024-01-27T11:24:30;5.90;99.90
1546;DHT22;766;51.502;9.752;2024-01-27T11:27:02;5.90;99.90
1546;DHT22;766;51.502;9.752;2024-01-27T11:29:31;5.90;99.90
1546;DHT22;766;51.502;9.752;2024-01-27T11:32:01;6.00;99.90
1546;DHT22;766;51.502;9.752;2024-01-27T11:34:41;5.80;99.90
1546;DHT22;766;51.502;9.752;2024-01-27T11:37:11;5.90;99.90
1546;DHT22;766;51.502;9.752;2024-01-27T11:39:41;6.10;99.90
1546;DHT22;766;51.502;9.752;2024-01-27T11:42:10;6.20;99.90
1546;DHT22;766;51.502;9.752;2024-01-27T11:44:41;6.30;99.90
1546;DHT22;766;51.502;9.752;2024-01-27T11:47:15;6.40;99.90
1546;DHT22;766;51.502;9.752;2024-01-27T11:49:44;6.40;99.90
1546;DHT22;766;51.502;9.752;2024-01-27T11:52:18;6.60;99.90
1546;DHT22;766;51.502;9.752;2024-01-27T11:54:53;6.80;99.90
1546;DHT22;766;51.502;9.752;2024-01-27T11:57:22;7.00;99.90
1546;DHT22;766;51.502;9.752;2024-01-27T11:59:50;7.20;99.90
1546;DHT22;766;51.502;9.752;2024-01-27T12:02:19;7.30;99.90
1546;DHT22;766;51.502;9.752;2024-01-27T12:04:48;7.70;99.90
1546;DHT22;766;51.502;9.752;2024-01-27T12:07:17;8.30;99.90
1546;DHT22;766;51.502;9.752;2024-01-27T12:09:50;9.40;99.90
1546;DHT22;766;51.502;9.752;2024-01-27T12:12:18;11.00;99.90
1546;DHT22;766;51.502;9.752;2024-01-27T12:14:48;12.30;99.90
1546;DHT22;766;51.502;9.752;2024-01-27T12:17:17;13.00;99.90
1546;DHT22;766;51.502;9.752;2024-01-27T12:19:46;13.00;99.90
1546;DHT22;766;51.502;9.752;2024-01-27T12:22:22;12.20;99.90
1546;DHT22;766;51.502;9.752;2024-01-27T12:24:52;10.90;99.90
1546;DHT22;766;51.502;9.752;2024-01-27T12:27:21;10.10;99.90
1546;DHT22;766;51.502;9.752;2024-01-27T12:29:50;9.50;99.90
1546;DHT22;766;51.502;9.752;2024-01-27T12:32:18;9.10;99.90
1546;DHT22;766;51.502;9.752;2024-01-27T12:34:46;9.00;99.90
1546;DHT22;766;51.502;9.752;2024-01-27T12:37:17;9.30;99.90
1546;DHT22;766;51.502;9.752;2024-01-27T12:39:45;10.00;99.90
1546;DHT22;766;51.502;9.752;2024-01-27T12:42:15;11.20;99.90
1546;DHT22;766;51.502;9.752;2024-01-27T12:44:44;12.30;99.90
1546;DHT22;766;51.502;9.752;2024-01-27T12:47:13;12.70;99.90
1546;DHT22;766;51.502;9.752;2024-01-27T12:49:41;12.40;99.90
1546;DHT22;766;51.502;9.752;2024-01-27T12:52:09;11.70;99.90
1546;DHT22;766;51.502;9.752;2024-01-27T12:54:38;10.90;99.90
1546;DHT22;766;51.502;9.752;2024-01-27T12:57:06;10.20;99.90
1546;DHT22;766;51.502;9.752;2024-01-27T12:59:37;9.60;99.90
1546;DHT22;766;51.502;9.752;2024-01-27T13:02:05;9.30;99.90
1546;DHT22;766;51.502;9.752;2024-01-27T13:04:34;9.00;99.90
1546;DHT22;766;51.502;9.752;2024-01-27T13:07:02;9.00;99.90
1546;DHT22;766;51.502;9.752;2024-01-27T13:09:30;9.50;99.90
1546;DHT22;766;51.502;9.752;2024-01-27T13:11:58;9.80;99.90
1546;DHT22;766;51.502;9.752;2024-01-27T13:14:27;9.80;99.90
1546;DHT22;766;51.502;9.752;2024-01-27T13:16:56;9.50;99.90
1546;DHT22;766;51.502;9.752;2024-01-27T13:19:26;9.20;99.90
1546;DHT22;766;51.502;9.752;2024-01-27T13:21:55;8.90;99.90
1546;DHT22;766;51.502;9.752;2024-01-27T13:24:23;8.60;99.90
1546;DHT22;766;51.502;9.752;2024-01-27T13:26:52;8.40;99.90
1546;DHT22;766;51.502;9.752;2024-01-27T13:29:20;8.40;99.90
1546;DHT22;766;51.502;9.752;2024-01-27T13:31:50;8.40;99.90
1546;DHT22;766;51.502;9.752;2024-01-27T13:34:19;8.40;99.90
1546;DHT22;766;51.502;9.752;2024-01-27T13:36:48;8.30;99.90
1546;DHT22;766;51.502;9.752;2024-01-27T13:39:16;8.20;99.90
1546;DHT22;766;51.502;9.752;2024-01-27T13:41:44;8.10;99.90
1546;DHT22;766;51.502;9.752;2024-01-27T13:44:12;8.10;99.90
1546;DHT22;766;51.502;9.752;2024-01-27T13:46:41;8.00;99.90
1546;DHT22;766;51.502;9.752;2024-01-27T13:49:09;8.00;99.90
1546;DHT22;766;51.502;9.752;2024-01-27T13:51:39;8.00;99.90
1546;DHT22;766;51.502;9.752;2024-01-27T13:54:07;8.00;99.90
1546;DHT22;766;51.502;9.752;2024-01-27T13:56:36;7.90;99.90
1546;DHT22;766;51.502;9.752;2024-01-27T13:59:05;7.90;99.90
1546;DHT22;766;51.502;9.752;2024-01-27T14:01:33;7.90;99.90
1546;DHT22;766;51.502;9.752;2024-01-27T14:04:01;7.90;99.90
1546;DHT22;766;51.502;9.752;2024-01-27T14:06:29;7.90;99.90
1546;DHT22;766;51.502;9.752;2024-01-27T14:08:59;7.90;99.90
1546;DHT22;766;51.502;9.752;2024-01-27T14:11:28;7.90;99.90
1546;DHT22;766;51.502;9.752;2024-01-27T14:13:56;7.80;99.90
1546;DHT22;766;51.502;9.752;2024-01-27T14:16:24;7.80;99.90
1546;DHT22;766;51.502;9.752;2024-01-27T14:18:53;7.70;99.90
1546;DHT22;766;51.502;9.752;2024-01-27T14:21:21;7.60;99.90
1546;DHT22;766;51.502;9.752;2024-01-27T14:23:49;7.60;99.90
1546;DHT22;766;51.502;9.752;2024-01-27T14:26:25;7.50;99.90
1546;DHT22;766;51.502;9.752;2024-01-27T14:28:53;7.50;99.90
1546;DHT22;766;51.502;9.752;2024-01-27T14:31:21;7.40;99.90
1546;DHT22;766;51.502;9.752;2024-01-27T14:33:50;7.40;99.90
1546;DHT22;766;51.502;9.752;2024-01-27T14:36:19;7.30;99.90
1546;DHT22;766;51.502;9.752;2024-01-27T14:38:50;7.30;99.90
1546;DHT22;766;51.502;9.752;2024-01-27T14:41:18;7.30;99.90
1546;DHT22;766;51.502;9.752;2024-01-27T14:43:51;7.20;99.90
1546;DHT22;766;51.502;9.752;2024-01-27T14:46:22;7.20;99.90
1546;DHT22;766;51.502;9.752;2024-01-27T14:48:50;7.10;99.90
1546;DHT22;766;51.502;9.752;2024-01-27T14:51:20;7.10;99.90
1546;DHT22;766;51.502;9.752;2024-01-27T14:53:49;7.00;99.90
1546;DHT22;766;51.502;9.752;2024-01-27T14:56:18;6.90;99.90
1546;DHT22;766;51.502;9.752;2024-01-27T14:58:47;6.70;99.90
1546;DHT22;766;51.502;9.752;2024-01-27T15:01:18;6.60;99.90
1546;DHT22;766;51.502;9.752;2024-01-27T15:03:46;6.60;99.90
1546;DHT22;766;51.502;9.752;2024-01-27T15:06:14;6.50;99.90
1546;DHT22;766;51.502;9.752;2024-01-27T15:08:43;6.40;99.90
1546;DHT22;766;51.502;9.752;2024-01-27T15:11:12;6.40;99.90
1546;DHT22;766;51.502;9.752;2024-01-27T15:13:40;6.40;99.90
1546;DHT22;766;51.502;9.752;2024-01-27T15:16:10;6.40;99.90
1546;DHT22;766;51.502;9.752;2024-01-27T15:18:38;6.40;99.90
1546;DHT22;766;51.502;9.752;2024-01-27T15:21:10;6.30;99.90
1546;DHT22;766;51.502;9.752;2024-01-27T15:23:39;6.30;99.90
1546;DHT22;766;51.502;9.752;2024-01-27T15:26:08;6.20;99.90
1546;DHT22;766;51.502;9.752;2024-01-27T15:28:38;6.20;99.90
1546;DHT22;766;51.502;9.752;2024-01-27T15:31:09;6.10;99.90
1546;DHT22;766;51.502;9.752;2024-01-27T15:33:42;6.00;99.90
1546;DHT22;766;51.502;9.752;2024-01-27T15:36:11;5.80;99.90
1546;DHT22;766;51.502;9.752;2024-01-27T15:38:39;5.60;99.90
1546;DHT22;766;51.502;9.752;2024-01-27T15:41:08;5.40;99.90
1546;DHT22;766;51.502;9.752;2024-01-27T15:43:37;5.40;99.90
1546;DHT22;766;51.502;9.752;2024-01-27T15:46:06;5.20;99.90
1546;DHT22;766;51.502;9.752;2024-01-27T15:48:35;5.00;99.90
1546;DHT22;766;51.502;9.752;2024-01-27T15:51:05;5.00;99.90
1546;DHT22;766;51.502;9.752;2024-01-27T15:53:33;5.00;99.90
1546;DHT22;766;51.502;9.752;2024-01-27T15:56:01;4.90;99.90
1546;DHT22;766;51.502;9.752;2024-01-27T15:58:30;4.80;99.90
1546;DHT22;766;51.502;9.752;2024-01-27T16:00:58;4.80;99.90
1546;DHT22;766;51.502;9.752;2024-01-27T16:03:26;4.80;99.90
1546;DHT22;766;51.502;9.752;2024-01-27T16:05:55;4.70;99.90
1546;DHT22;766;51.502;9.752;2024-01-27T16:08:24;4.60;99.90
1546;DHT22;766;51.502;9.752;2024-01-27T16:10:56;4.50;99.90
1546;DHT22;766;51.502;9.752;2024-01-27T16:13:24;4.40;99.90
1546;DHT22;766;51.502;9.752;2024-01-27T16:15:52;4.50;99.90
1546;DHT22;766;51.502;9.752;2024-01-27T16:18:20;4.60;99.90
1546;DHT22;766;51.502;9.752;2024-01-27T16:20:49;4.60;99.90
1546;DHT22;766;51.502;9.752;2024-01-27T16:23:17;4.70;99.90
1546;DHT22;766;51.502;9.752;2024-01-27T16:25:47;4.60;99.90
1546;DHT22;766;51.502;9.752;2024-01-27T16:28:15;4.50;99.90
1546;DHT22;766;51.502;9.752;2024-01-27T16:30:44;4.50;99.90
1546;DHT22;766;51.502;9.752;2024-01-27T16:33:12;4.30;99.90
1546;DHT22;766;51.502;9.752;2024-01-27T16:35:41;4.20;99.90
1546;DHT22;766;51.502;9.752;2024-01-27T16:38:09;4.10;99.90
1546;DHT22;766;51.502;9.752;2024-01-27T16:40:37;4.10;99.90
1546;DHT22;766;51.502;9.752;2024-01-27T16:43:06;4.10;99.90
1546;DHT22;766;51.502;9.752;2024-01-27T16:45:35;4.10;99.90